This is the latest recevied weather packets stored in our database for station/object KY0TEQ-13. If no packets are shown the sender has not sent any weather packets the latest 10 day(s).
| Time | Temp. | Humidity | Pressure | Rain* | Wind** | Luminosity | Snow |
|---|---|---|---|---|---|---|---|
| 1777682114 | 11.11° C | 36% | 1302.6 hPa | 0 mm | - | 115 W/m² | - |
| 1777681810 | 11.67° C | 36% | 1302.6 hPa | 0 mm | - | 129 W/m² | - |
| 1777681507 | 11.67° C | 37% | 1302.4 hPa | 0 mm | - | 146 W/m² | - |
| 1777681204 | 12.22° C | 36% | 1302.4 hPa | 0 mm | - | 160 W/m² | - |
| 1777680901 | 12.78° C | 36% | 1302.3 hPa | 0 mm | - | 178 W/m² | - |
| 1777680599 | 12.78° C | 35% | 1302.2 hPa | 0 mm | - | 201 W/m² | - |
| 1777680297 | 12.78° C | 34% | 1302.1 hPa | 0 mm | - | 225 W/m² | - |
| 1777679993 | 12.78° C | 35% | 1302 hPa | 0 mm | - | 250 W/m² | - |
| 1777679689 | 12.78° C | 34% | 1302 hPa | 0 mm | - | 276 W/m² | - |
| 1777679384 | 12.78° C | 33% | 1302 hPa | 0 mm | - | 293 W/m² | - |
| 1777679081 | 13.33° C | 33% | 1302 hPa | 0 mm | - | 314 W/m² | - |
| 1777678780 | 13.33° C | 34% | 1302.1 hPa | 0 mm | - | 339 W/m² | - |
| 1777678477 | 13.33° C | 32% | 1302 hPa | 0 mm | - | 357 W/m² | - |
| 1777678172 | 13.89° C | 31% | 1302 hPa | 0 mm | - | 347 W/m² | - |
| 1777677870 | 13.33° C | 30% | 1302 hPa | 0 mm | - | 437 W/m² | - |
| 1777677567 | 12.78° C | 31% | 1301.8 hPa | 0 mm | - | 463 W/m² | - |
| 1777677266 | 11.67° C | 34% | 1302.1 hPa | 0 mm | - | 410 W/m² | - |
| 1777676963 | 10.56° C | 37% | 1302 hPa | 0 mm | - | 166 W/m² | - |
| 1777676662 | 10.56° C | 39% | 1302.3 hPa | 0 mm | - | 119 W/m² | - |
| 1777676359 | 10° C | 40% | 1302 hPa | 0 mm | - | 87 W/m² | - |
| 1777676057 | 10° C | 41% | 1301.8 hPa | 0 mm | - | 92 W/m² | - |
| 1777675752 | 10.56° C | 40% | 1301.7 hPa | 0 mm | - | 101 W/m² | - |
| 1777675450 | 10° C | 39% | 1301.7 hPa | 0 mm | - | 105 W/m² | - |
| 1777675146 | 10° C | 41% | 1301.8 hPa | 0 mm | - | 112 W/m² | - |
| 1777674842 | 10° C | 42% | 1302 hPa | 0 mm | - | 112 W/m² | - |
* Rain latest hour (hover to see other rain measurements)
** Current wind speed in m/s (hover to see current wind gust speed)